Weather reports worldwide

Advertisment
Polientes, Spain (8033): temperature & dewpoint: 08.07.2020 12:00:00 - 14.07.2020 12:00:00 (CEST)Polientes, Spain (8033): wind speed & gusts: 08.07.2020 12:00:00 - 14.07.2020 12:00:00 (CEST)Polientes, Spain (8033): wind direction: 08.07.2020 12:00:00 - 14.07.2020 12:00:00 (CEST)Polientes, Spain (8033): precipitation: 08.07.2020 12:00:00 - 14.07.2020 12:00:00 (CEST)
Date & Time tt [°C] td [°C] ff [km/h] ff [kn] fx [km/h] fx [kn] dd rr [mm]
14.07.2020 12:00:00 - - - - - - - -
14.07.2020 11:00:00 17,4 6,8 8 4 22 12 NE 0,0
14.07.2020 10:00:00 16,1 9,0 6 3 17 9 ENE 0,0
14.07.2020 09:00:00 11,3 10,2 1 0 5 3 E 0,0
14.07.2020 08:00:00 8,8 7,8 0 0 6 4 NNE -
14.07.2020 07:00:00 8,2 7,3 1 0 5 3 NNE 0,0
14.07.2020 06:00:00 8,8 7,8 0 0 4 2 W 0,0
14.07.2020 05:00:00 9,0 8,1 0 0 5 3 N 0,0
14.07.2020 04:00:00 9,0 8,1 0 0 6 3 N 0,0
14.07.2020 03:00:00 9,0 8,0 0 0 3 2 SW 0,0
14.07.2020 02:00:00 9,7 8,7 0 0 7 4 NNE -
14.07.2020 01:00:00 10,4 9,2 1 1 6 3 NE 0,0
14.07.2020 00:00:00 11,7 9,8 0 0 4 2 N 0,0
13.07.2020 23:00:00 13,8 10,8 0 0 8 5 NNE 0,0
13.07.2020 22:00:00 15,9 10,0 1 1 20 11 NE 0,0
13.07.2020 21:00:00 17,5 7,6 4 2 22 12 NE 0,0
13.07.2020 20:00:00 19,5 7,8 9 5 31 17 NE -
13.07.2020 19:00:00 21,3 7,8 9 5 33 18 NE 0,0
13.07.2020 18:00:00 22,9 8,3 9 5 32 18 NE 0,0
13.07.2020 17:00:00 24,2 8,9 6 3 27 15 NNE 0,0
13.07.2020 16:00:00 24,1 8,9 5 3 24 13 NNE 0,0
13.07.2020 15:00:00 24,9 9,2 5 3 27 15 NNE 0,0
13.07.2020 14:00:00 24,8 8,7 4 2 23 13 NNE -
13.07.2020 13:00:00 23,4 7,0 4 2 21 12 N 0,0
13.07.2020 12:00:00 22,4 6,5 5 3 19 11 NNE 0,0
13.07.2020 11:00:00 22,0 7,0 7 4 23 13 NE 0,0
13.07.2020 10:00:00 17,4 9,6 3 2 8 4 WSW 0,0
13.07.2020 09:00:00 13,2 10,9 0 0 0 0 N 0,0
13.07.2020 08:00:00 11,7 10,4 0 0 0 0 N -
13.07.2020 07:00:00 11,2 9,9 0 0 0 0 N 0,0
13.07.2020 06:00:00 12,6 10,6 0 0 5 3 N 0,0
13.07.2020 05:00:00 14,0 11,1 2 1 8 4 NE 0,0
13.07.2020 04:00:00 14,4 11,6 3 1 10 6 E 0,0
13.07.2020 03:00:00 15,6 12,7 5 3 13 7 NE 0,0
13.07.2020 02:00:00 15,9 13,8 1 0 9 5 ENE -
13.07.2020 01:00:00 16,2 13,9 1 0 14 8 ESE 0,0
13.07.2020 00:00:00 16,1 13,9 2 1 8 5 ENE 0,0
12.07.2020 23:00:00 16,6 14,4 2 1 17 9 NE 0,0
12.07.2020 22:00:00 16,7 14,5 4 2 24 13 NE 0,0
12.07.2020 21:00:00 17,2 14,3 6 3 26 14 NE 0,0
12.07.2020 20:00:00 18,7 14,4 7 4 27 15 NE -
12.07.2020 19:00:00 22,0 14,1 11 6 31 17 NE 0,0
12.07.2020 18:00:00 24,4 13,9 11 6 31 17 NE 0,0
12.07.2020 17:00:00 26,0 14,1 8 4 29 16 NNE 0,0
12.07.2020 16:00:00 26,7 13,8 7 4 20 11 NNE 0,0
12.07.2020 15:00:00 27,2 13,6 4 2 28 15 NE 0,0
12.07.2020 14:00:00 26,1 12,8 8 4 22 12 NE -
12.07.2020 13:00:00 24,1 13,7 4 2 20 11 NE 0,0
12.07.2020 12:00:00 20,0 14,3 1 0 14 7 S 0,0
12.07.2020 11:00:00 16,9 14,5 1 1 11 6 NNE 0,0
12.07.2020 10:00:00 15,6 14,3 3 1 12 6 N 0,0
12.07.2020 09:00:00 15,1 14,1 5 3 11 6 ESE 0,0
12.07.2020 08:00:00 14,7 13,8 1 1 6 4 W -
12.07.2020 07:00:00 14,8 13,9 1 1 13 7 SSW 0,5
12.07.2020 06:00:00 14,7 13,8 4 2 28 15 W 3,4
12.07.2020 05:00:00 14,9 13,8 2 1 8 4 W 3,3
12.07.2020 04:00:00 15,6 12,3 1 1 29 15 W 0,0
12.07.2020 03:00:00 14,9 12,2 3 1 13 7 ENE 0,0
12.07.2020 02:00:00 15,5 12,6 0 0 16 9 NNW -
12.07.2020 01:00:00 14,5 12,3 1 1 10 6 ENE 0,0
12.07.2020 00:00:00 14,7 12,2 2 1 18 10 E 0,0
11.07.2020 23:00:00 15,3 12,2 3 1 10 5 NNE 0,0
11.07.2020 22:00:00 16,7 12,4 1 1 15 8 ENE 0,0
11.07.2020 21:00:00 18,4 12,6 3 2 23 12 NE 0,0
11.07.2020 20:00:00 20,6 12,0 7 4 22 12 NNE -
11.07.2020 19:00:00 22,2 11,2 4 2 23 12 NNE 0,0
11.07.2020 18:00:00 23,7 10,0 9 5 27 15 ENE 0,0
11.07.2020 17:00:00 23,7 10,0 10 5 24 13 NE 0,0
11.07.2020 16:00:00 23,5 10,2 9 5 32 17 ENE 0,0
11.07.2020 15:00:00 23,2 10,3 10 6 26 14 ENE 0,0
11.07.2020 14:00:00 22,4 9,6 8 5 25 14 ENE -
11.07.2020 13:00:00 21,5 9,7 9 5 24 13 ENE 0,0
11.07.2020 12:00:00 19,0 10,5 6 3 22 12 ENE 0,0
11.07.2020 11:00:00 16,4 9,8 8 5 21 12 NE 0,0
11.07.2020 10:00:00 16,1 9,6 7 4 19 11 NE 0,0
11.07.2020 09:00:00 14,3 10,2 3 2 13 7 NE 0,0
11.07.2020 08:00:00 12,2 10,3 0 0 5 3 S -
11.07.2020 07:00:00 11,5 9,6 1 1 8 4 ENE 0,0
11.07.2020 06:00:00 12,3 9,7 3 2 16 9 E 0,0
11.07.2020 05:00:00 13,1 9,7 6 3 16 9 NE 0,0
11.07.2020 04:00:00 13,4 10,0 6 3 17 9 NNE 0,0
11.07.2020 03:00:00 13,7 11,4 4 2 14 8 NNE 0,0
11.07.2020 02:00:00 13,7 11,6 4 2 14 7 NE -
11.07.2020 01:00:00 13,5 11,6 4 2 14 8 NE 0,0
11.07.2020 00:00:00 13,4 11,7 3 1 18 10 N 0,0
10.07.2020 23:00:00 13,9 11,9 5 3 25 13 NNE 0,0
10.07.2020 22:00:00 15,0 11,6 5 3 16 9 NNE 0,0
10.07.2020 21:00:00 16,4 11,3 4 2 23 12 NNE 0,0
10.07.2020 20:00:00 17,5 11,1 5 3 21 11 NNE -
10.07.2020 19:00:00 17,1 11,8 4 2 21 12 NNE 0,0
10.07.2020 18:00:00 19,3 11,1 5 3 29 16 NNE 0,0
10.07.2020 17:00:00 19,0 11,3 7 4 31 17 NE 0,0
10.07.2020 16:00:00 20,1 11,8 6 3 23 12 NNE 0,0
10.07.2020 15:00:00 20,1 12,1 3 2 17 9 NNE 0,0
10.07.2020 14:00:00 19,3 12,1 6 3 22 12 NNE -
10.07.2020 13:00:00 19,1 12,8 5 3 22 12 NE 0,0
10.07.2020 12:00:00 17,9 13,0 4 2 21 12 NNE 0,0
10.07.2020 11:00:00 17,9 13,2 6 4 20 11 NE 0,0
10.07.2020 10:00:00 16,9 13,1 6 3 16 9 NE 0,0
10.07.2020 09:00:00 16,5 13,3 5 3 14 7 NE 0,0
10.07.2020 08:00:00 16,4 13,4 2 1 12 6 NE -
10.07.2020 07:00:00 16,1 13,4 2 1 10 6 NE 0,0
10.07.2020 06:00:00 15,9 13,9 0 0 5 3 SSE 0,0
10.07.2020 05:00:00 15,5 14,0 0 0 3 2 N 0,0
10.07.2020 04:00:00 15,8 13,9 0 0 3 2 E 0,0
10.07.2020 03:00:00 16,6 14,2 0 0 6 3 NNE 0,0
10.07.2020 02:00:00 16,8 14,4 0 0 9 5 N -
10.07.2020 01:00:00 16,7 14,5 1 0 10 5 ESE 0,0
10.07.2020 00:00:00 16,6 14,4 4 2 19 10 ENE 0,0
09.07.2020 23:00:00 16,5 14,3 5 3 17 9 NE 0,0
09.07.2020 22:00:00 17,9 15,2 7 4 16 9 NE 0,0
09.07.2020 21:00:00 20,1 14,9 6 3 13 7 NE 0,0
09.07.2020 20:00:00 20,7 15,0 6 4 26 14 NE -
09.07.2020 19:00:00 23,1 14,6 9 5 32 17 ENE 0,0
09.07.2020 18:00:00 25,9 14,3 10 5 31 17 NE 0,0
09.07.2020 17:00:00 27,8 14,4 8 5 27 15 NE 0,0
09.07.2020 16:00:00 28,9 13,9 11 6 29 16 NE 0,0
09.07.2020 15:00:00 29,1 13,4 6 3 26 14 NE 0,0
09.07.2020 14:00:00 28,6 12,8 6 3 21 11 NNE -
09.07.2020 13:00:00 27,8 13,0 5 3 19 11 E 0,0
09.07.2020 12:00:00 25,7 12,8 6 3 18 10 ENE 0,0
09.07.2020 11:00:00 22,7 13,5 3 1 11 6 E 0,0
09.07.2020 10:00:00 18,3 13,8 2 1 8 4 SSW 0,0
09.07.2020 09:00:00 14,5 13,1 2 1 5 3 SW 0,0
09.07.2020 08:00:00 12,7 11,6 0 0 4 2 N -
09.07.2020 07:00:00 12,3 11,0 1 1 6 3 NE 0,0
09.07.2020 06:00:00 13,1 11,8 0 0 3 2 N 0,0
09.07.2020 05:00:00 13,9 12,1 0 0 4 2 NW 0,0
09.07.2020 04:00:00 14,5 12,5 0 0 6 3 N 0,0
09.07.2020 03:00:00 15,9 13,1 4 2 16 9 WSW 0,0
09.07.2020 02:00:00 16,5 11,4 0 0 10 5 N -
09.07.2020 01:00:00 18,2 11,8 1 1 22 12 NNE 0,0
09.07.2020 00:00:00 20,5 12,4 6 4 16 9 WSW 0,0
08.07.2020 23:00:00 20,9 11,2 0 0 29 15 N 0,0
08.07.2020 22:00:00 20,1 14,2 2 1 15 8 SSE 0,0
08.07.2020 21:00:00 20,7 15,0 5 3 22 12 NE 0,0
08.07.2020 20:00:00 22,0 14,9 7 4 19 10 NE -
08.07.2020 19:00:00 25,4 13,9 3 2 15 8 ENE 0,0
08.07.2020 18:00:00 27,7 13,7 4 2 24 13 NE 0,0
08.07.2020 17:00:00 29,2 13,1 4 2 18 10 NE 0,0
08.07.2020 16:00:00 28,3 12,2 5 3 19 10 NE 0,0
08.07.2020 15:00:00 26,3 9,6 8 5 17 9 NE 0,0
08.07.2020 14:00:00 26,2 9,6 5 3 18 10 NE -
08.07.2020 13:00:00 24,3 8,7 2 1 19 10 NW 0,0
08.07.2020 12:00:00 22,4 10,5 3 2 10 6 ENE 0,0

tt = temperature
td = dewpoint
ff = wind speed
fx = gusts
dd = wind direction
rr = precipitation

Next stations